sensor_id;sensor_type;location;lat;lon;timestamp;pressure;altitude;pressure_sealevel;temperature;humidity
79150;BME280;68563;45.644;13.782;2023-08-06T00:01:42;99942.81;;;20.38;59.75
79150;BME280;68563;45.644;13.782;2023-08-06T00:04:08;99945.78;;;20.33;59.21
79150;BME280;68563;45.644;13.782;2023-08-06T00:06:33;99945.78;;;20.33;60.10
79150;BME280;68563;45.644;13.782;2023-08-06T00:08:58;99939.00;;;20.29;60.33
79150;BME280;68563;45.644;13.782;2023-08-06T00:11:24;99941.47;;;20.32;60.49
79150;BME280;68563;45.644;13.782;2023-08-06T00:13:49;99949.13;;;20.35;60.75
79150;BME280;68563;45.644;13.782;2023-08-06T00:16:15;99948.72;;;20.41;60.75
79150;BME280;68563;45.644;13.782;2023-08-06T00:18:40;99944.50;;;20.39;60.77
79150;BME280;68563;45.644;13.782;2023-08-06T00:21:06;99948.84;;;20.40;60.33
79150;BME280;68563;45.644;13.782;2023-08-06T00:23:31;99945.66;;;20.35;60.81
79150;BME280;68563;45.644;13.782;2023-08-06T00:25:56;99938.72;;;20.34;60.73
79150;BME280;68563;45.644;13.782;2023-08-06T00:28:22;99926.16;;;20.24;60.73
79150;BME280;68563;45.644;13.782;2023-08-06T00:30:56;99927.03;;;20.25;60.97
79150;BME280;68563;45.644;13.782;2023-08-06T00:33:22;99926.56;;;20.18;61.16
79150;BME280;68563;45.644;13.782;2023-08-06T00:35:48;99929.13;;;20.20;61.39
79150;BME280;68563;45.644;13.782;2023-08-06T00:38:13;99924.59;;;20.22;61.29
79150;BME280;68563;45.644;13.782;2023-08-06T00:40:39;99920.19;;;20.22;62.02
79150;BME280;68563;45.644;13.782;2023-08-06T00:43:04;99920.19;;;20.22;62.53
79150;BME280;68563;45.644;13.782;2023-08-06T00:45:31;99918.50;;;20.21;62.53
79150;BME280;68563;45.644;13.782;2023-08-06T00:47:58;99914.28;;;20.19;62.87
79150;BME280;68563;45.644;13.782;2023-08-06T00:50:25;99913.81;;;20.12;63.40
79150;BME280;68563;45.644;13.782;2023-08-06T00:52:52;99911.59;;;20.06;64.14
79150;BME280;68563;45.644;13.782;2023-08-06T00:55:17;99911.81;;;20.03;63.98
79150;BME280;68563;45.644;13.782;2023-08-06T00:57:43;99905.75;;;20.15;63.93
79150;BME280;68563;45.644;13.782;2023-08-06T01:00:09;99896.47;;;20.09;64.15
79150;BME280;68563;45.644;13.782;2023-08-06T01:02:35;99892.16;;;20.08;64.06
79150;BME280;68563;45.644;13.782;2023-08-06T01:05:01;99884.66;;;20.02;64.30
79150;BME280;68563;45.644;13.782;2023-08-06T01:10:34;99892.16;;;20.08;63.38
79150;BME280;68563;45.644;13.782;2023-08-06T01:13:18;99879.63;;;19.99;63.51
79150;BME280;68563;45.644;13.782;2023-08-06T01:15:46;99884.25;;;19.96;63.79
79150;BME280;68563;45.644;13.782;2023-08-06T01:18:14;99885.72;;;20.00;63.59
79150;BME280;68563;45.644;13.782;2023-08-06T01:20:39;99884.03;;;19.99;63.53
79150;BME280;68563;45.644;13.782;2023-08-06T01:23:05;99885.44;;;20.04;63.65
79150;BME280;68563;45.644;13.782;2023-08-06T01:25:38;99872.41;;;20.03;63.24
79150;BME280;68563;45.644;13.782;2023-08-06T01:28:12;99876.78;;;20.02;62.89
79150;BME280;68563;45.644;13.782;2023-08-06T01:30:41;99875.38;;;19.97;62.04
79150;BME280;68563;45.644;13.782;2023-08-06T01:33:09;99871.66;;;20.01;62.94
79150;BME280;68563;45.644;13.782;2023-08-06T01:35:38;99873.41;;;20.00;62.27
79150;BME280;68563;45.644;13.782;2023-08-06T01:38:03;99879.41;;;20.02;62.35
79150;BME280;68563;45.644;13.782;2023-08-06T01:40:29;99873.97;;;20.05;62.22
79150;BME280;68563;45.644;13.782;2023-08-06T01:42:55;99877.44;;;20.06;61.43
79150;BME280;68563;45.644;13.782;2023-08-06T01:45:20;99870.59;;;20.03;61.43
79150;BME280;68563;45.644;13.782;2023-08-06T01:47:46;99868.25;;;19.99;61.81
79150;BME280;68563;45.644;13.782;2023-08-06T01:50:11;99871.66;;;20.01;61.63
79150;BME280;68563;45.644;13.782;2023-08-06T01:52:36;99874.06;;;20.04;61.64
79150;BME280;68563;45.644;13.782;2023-08-06T01:55:02;99869.66;;;20.04;61.31
79150;BME280;68563;45.644;13.782;2023-08-06T01:57:28;99869.44;;;20.07;61.60
79150;BME280;68563;45.644;13.782;2023-08-06T01:59:53;99865.53;;;20.00;62.00
79150;BME280;68563;45.644;13.782;2023-08-06T02:02:18;99867.63;;;19.95;63.26
79150;BME280;68563;45.644;13.782;2023-08-06T02:04:44;99869.13;;;19.99;62.94
79150;BME280;68563;45.644;13.782;2023-08-06T02:07:10;99868.56;;;19.94;62.98
79150;BME280;68563;45.644;13.782;2023-08-06T02:09:35;99861.81;;;19.90;62.87
79150;BME280;68563;45.644;13.782;2023-08-06T02:12:01;99862.25;;;19.97;62.75
79150;BME280;68563;45.644;13.782;2023-08-06T02:14:27;99855.41;;;19.94;63.05
79150;BME280;68563;45.644;13.782;2023-08-06T02:16:52;99857.56;;;20.02;62.95
79150;BME280;68563;45.644;13.782;2023-08-06T02:19:18;99866.72;;;20.09;62.66
79150;BME280;68563;45.644;13.782;2023-08-06T02:21:43;99865.75;;;20.10;62.68
79150;BME280;68563;45.644;13.782;2023-08-06T02:24:09;99858.44;;;20.15;62.23
79150;BME280;68563;45.644;13.782;2023-08-06T02:26:34;99856.22;;;20.09;62.01
79150;BME280;68563;45.644;13.782;2023-08-06T02:28:59;99850.00;;;20.10;61.54
79150;BME280;68563;45.644;13.782;2023-08-06T02:31:25;99857.16;;;20.08;61.74
79150;BME280;68563;45.644;13.782;2023-08-06T02:33:50;99844.06;;;19.93;62.19
79150;BME280;68563;45.644;13.782;2023-08-06T02:36:16;99856.28;;;19.95;62.09
79150;BME280;68563;45.644;13.782;2023-08-06T02:38:41;99858.16;;;19.92;62.28
79150;BME280;68563;45.644;13.782;2023-08-06T02:41:06;99863.41;;;19.92;62.19
79150;BME280;68563;45.644;13.782;2023-08-06T02:43:32;99857.22;;;19.93;62.28
79150;BME280;68563;45.644;13.782;2023-08-06T02:45:58;99841.34;;;19.95;62.91
79150;BME280;68563;45.644;13.782;2023-08-06T02:48:24;99848.75;;;20.03;62.48
79150;BME280;68563;45.644;13.782;2023-08-06T02:50:49;99861.72;;;19.91;62.81
79150;BME280;68563;45.644;13.782;2023-08-06T02:53:14;99859.63;;;19.97;62.52
79150;BME280;68563;45.644;13.782;2023-08-06T02:55:45;99863.31;;;19.94;62.72
79150;BME280;68563;45.644;13.782;2023-08-06T02:58:13;99859.69;;;19.82;63.02
79150;BME280;68563;45.644;13.782;2023-08-06T03:00:38;99859.75;;;19.81;62.62
79150;BME280;68563;45.644;13.782;2023-08-06T03:03:04;99870.53;;;19.90;63.09
79150;BME280;68563;45.644;13.782;2023-08-06T03:05:29;99861.53;;;19.95;62.48
79150;BME280;68563;45.644;13.782;2023-08-06T03:07:54;99847.00;;;19.89;62.75
79150;BME280;68563;45.644;13.782;2023-08-06T03:10:20;99855.00;;;20.00;62.30
79150;BME280;68563;45.644;13.782;2023-08-06T03:12:45;99856.69;;;20.01;62.25
79150;BME280;68563;45.644;13.782;2023-08-06T03:15:11;99857.34;;;20.05;61.85
79150;BME280;68563;45.644;13.782;2023-08-06T03:17:36;99858.50;;;20.01;61.64
79150;BME280;68563;45.644;13.782;2023-08-06T03:20:02;99861.78;;;20.04;61.64
79150;BME280;68563;45.644;13.782;2023-08-06T03:22:27;99849.88;;;19.99;61.54
79150;BME280;68563;45.644;13.782;2023-08-06T03:24:52;99859.69;;;20.09;61.77
79150;BME280;68563;45.644;13.782;2023-08-06T03:27:18;99860.09;;;20.03;61.95
79150;BME280;68563;45.644;13.782;2023-08-06T03:29:43;99853.78;;;20.06;61.56
79150;BME280;68563;45.644;13.782;2023-08-06T03:32:09;99846.31;;;20.00;61.06
79150;BME280;68563;45.644;13.782;2023-08-06T03:34:34;99844.72;;;19.97;61.80
79150;BME280;68563;45.644;13.782;2023-08-06T03:36:59;99839.66;;;19.94;62.15
79150;BME280;68563;45.644;13.782;2023-08-06T03:39:25;99846.69;;;19.93;62.08
79150;BME280;68563;45.644;13.782;2023-08-06T03:41:51;99849.13;;;19.97;62.26
79150;BME280;68563;45.644;13.782;2023-08-06T03:44:16;99846.69;;;19.93;62.17
79150;BME280;68563;45.644;13.782;2023-08-06T03:46:41;99849.44;;;19.92;62.47
79150;BME280;68563;45.644;13.782;2023-08-06T03:49:07;99842.94;;;19.83;62.25
79150;BME280;68563;45.644;13.782;2023-08-06T03:51:32;99841.75;;;19.89;62.37
79150;BME280;68563;45.644;13.782;2023-08-06T03:53:57;99850.47;;;19.89;61.90
79150;BME280;68563;45.644;13.782;2023-08-06T03:56:23;99843.31;;;19.91;62.00
79150;BME280;68563;45.644;13.782;2023-08-06T03:58:48;99851.22;;;19.91;61.64
79150;BME280;68563;45.644;13.782;2023-08-06T04:01:14;99849.34;;;19.93;62.08
79150;BME280;68563;45.644;13.782;2023-08-06T04:03:40;99850.47;;;19.89;62.15
79150;BME280;68563;45.644;13.782;2023-08-06T04:06:07;99840.63;;;19.79;62.29
79150;BME280;68563;45.644;13.782;2023-08-06T04:08:33;99843.63;;;19.87;62.38
79150;BME280;68563;45.644;13.782;2023-08-06T04:10:58;99851.59;;;19.85;62.42
79150;BME280;68563;45.644;13.782;2023-08-06T04:13:23;99852.63;;;19.83;62.65
79150;BME280;68563;45.644;13.782;2023-08-06T04:15:49;99858.72;;;19.83;62.73
79150;BME280;68563;45.644;13.782;2023-08-06T04:18:14;99860.50;;;19.83;63.10
79150;BME280;68563;45.644;13.782;2023-08-06T04:20:46;99863.69;;;19.88;63.35
79150;BME280;68563;45.644;13.782;2023-08-06T04:23:12;99860.03;;;19.90;63.71
79150;BME280;68563;45.644;13.782;2023-08-06T04:25:38;99871.66;;;20.01;63.98
79150;BME280;68563;45.644;13.782;2023-08-06T04:28:04;99876.91;;;20.01;64.06
79150;BME280;68563;45.644;13.782;2023-08-06T04:30:29;99876.59;;;20.05;63.99
79150;BME280;68563;45.644;13.782;2023-08-06T04:32:56;99882.03;;;20.02;64.24
79150;BME280;68563;45.644;13.782;2023-08-06T04:35:22;99873.91;;;19.92;63.87
79150;BME280;68563;45.644;13.782;2023-08-06T04:37:47;99891.38;;;19.93;63.54
79150;BME280;68563;45.644;13.782;2023-08-06T04:40:12;99887.81;;;19.95;63.96
79150;BME280;68563;45.644;13.782;2023-08-06T04:42:38;99885.06;;;19.96;63.99
79150;BME280;68563;45.644;13.782;2023-08-06T04:45:04;99873.50;;;19.99;65.10
79150;BME280;68563;45.644;13.782;2023-08-06T04:47:29;99877.31;;;19.95;65.33
79150;BME280;68563;45.644;13.782;2023-08-06T04:49:55;99885.59;;;19.88;65.47
79150;BME280;68563;45.644;13.782;2023-08-06T04:52:20;99884.84;;;19.86;65.64
79150;BME280;68563;45.644;13.782;2023-08-06T04:54:46;99885.88;;;19.69;66.18
79150;BME280;68563;45.644;13.782;2023-08-06T04:57:11;99887.00;;;19.65;66.13
79150;BME280;68563;45.644;13.782;2023-08-06T04:59:36;99874.91;;;19.63;66.58
79150;BME280;68563;45.644;13.782;2023-08-06T05:02:02;99885.41;;;19.63;67.13
79150;BME280;68563;45.644;13.782;2023-08-06T05:04:27;99880.38;;;19.59;66.99
79150;BME280;68563;45.644;13.782;2023-08-06T05:06:53;99884.69;;;19.60;67.00
79150;BME280;68563;45.644;13.782;2023-08-06T05:09:19;99880.91;;;19.65;66.96
79150;BME280;68563;45.644;13.782;2023-08-06T05:11:46;99881.09;;;19.61;67.22
79150;BME280;68563;45.644;13.782;2023-08-06T05:14:11;99885.63;;;19.59;67.50
79150;BME280;68563;45.644;13.782;2023-08-06T05:16:36;99873.81;;;19.52;67.81
79150;BME280;68563;45.644;13.782;2023-08-06T05:19:02;99865.47;;;19.45;67.89
79150;BME280;68563;45.644;13.782;2023-08-06T05:21:27;99867.72;;;19.52;67.81
79150;BME280;68563;45.644;13.782;2023-08-06T05:23:53;99877.19;;;19.54;67.29
79150;BME280;68563;45.644;13.782;2023-08-06T05:26:18;99871.19;;;19.52;67.16
79150;BME280;68563;45.644;13.782;2023-08-06T05:28:44;99871.84;;;19.56;66.64
79150;BME280;68563;45.644;13.782;2023-08-06T05:31:11;99881.88;;;19.49;66.80
79150;BME280;68563;45.644;13.782;2023-08-06T05:33:36;99880.13;;;19.50;66.41
79150;BME280;68563;45.644;13.782;2023-08-06T05:36:01;99884.50;;;19.49;66.13
79150;BME280;68563;45.644;13.782;2023-08-06T05:38:27;99891.28;;;19.53;65.86
79150;BME280;68563;45.644;13.782;2023-08-06T05:40:52;99894.72;;;19.54;65.86
79150;BME280;68563;45.644;13.782;2023-08-06T05:43:18;99892.97;;;19.54;65.58
79150;BME280;68563;45.644;13.782;2023-08-06T05:45:46;99890.22;;;19.56;66.55
79150;BME280;68563;45.644;13.782;2023-08-06T05:48:14;99896.84;;;19.61;66.47
79150;BME280;68563;45.644;13.782;2023-08-06T05:50:39;99893.13;;;19.66;65.82
79150;BME280;68563;45.644;13.782;2023-08-06T05:53:04;99889.06;;;19.60;67.10
79150;BME280;68563;45.644;13.782;2023-08-06T05:55:30;99897.59;;;19.64;66.16
79150;BME280;68563;45.644;13.782;2023-08-06T05:57:57;99892.91;;;19.69;66.60
79150;BME280;68563;45.644;13.782;2023-08-06T06:00:22;99892.72;;;19.72;66.17
79150;BME280;68563;45.644;13.782;2023-08-06T06:02:48;99884.38;;;19.65;66.20
79150;BME280;68563;45.644;13.782;2023-08-06T06:05:13;99882.22;;;19.72;65.79
79150;BME280;68563;45.644;13.782;2023-08-06T06:07:39;99887.94;;;19.79;63.60
79150;BME280;68563;45.644;13.782;2023-08-06T06:10:04;99895.72;;;19.80;62.81
79150;BME280;68563;45.644;13.782;2023-08-06T06:12:30;99886.03;;;19.81;62.30
79150;BME280;68563;45.644;13.782;2023-08-06T06:14:55;99897.84;;;19.88;63.11
79150;BME280;68563;45.644;13.782;2023-08-06T06:17:21;99888.22;;;19.88;64.07
79150;BME280;68563;45.644;13.782;2023-08-06T06:19:47;99873.47;;;19.86;62.98
79150;BME280;68563;45.644;13.782;2023-08-06T06:22:12;99862.38;;;19.81;61.84
79150;BME280;68563;45.644;13.782;2023-08-06T06:24:37;99867.56;;;19.82;61.21
79150;BME280;68563;45.644;13.782;2023-08-06T06:27:03;99863.31;;;19.80;61.46
79150;BME280;68563;45.644;13.782;2023-08-06T06:29:29;99869.44;;;19.80;60.85
79150;BME280;68563;45.644;13.782;2023-08-06T06:31:54;99870.00;;;19.85;61.21
79150;BME280;68563;45.644;13.782;2023-08-06T06:34:20;99856.19;;;19.82;61.72
79150;BME280;68563;45.644;13.782;2023-08-06T06:36:45;99859.59;;;19.84;60.81
79150;BME280;68563;45.644;13.782;2023-08-06T06:39:11;99858.56;;;19.86;62.41
79150;BME280;68563;45.644;13.782;2023-08-06T06:41:36;99861.13;;;20.01;60.36
79150;BME280;68563;45.644;13.782;2023-08-06T06:44:01;99855.72;;;19.89;60.65
79150;BME280;68563;45.644;13.782;2023-08-06T06:46:27;99861.94;;;19.88;60.94
79150;BME280;68563;45.644;13.782;2023-08-06T06:48:52;99854.25;;;19.85;60.77
79150;BME280;68563;45.644;13.782;2023-08-06T06:51:18;99863.81;;;19.86;60.72
79150;BME280;68563;45.644;13.782;2023-08-06T06:53:43;99853.78;;;19.79;60.70
79150;BME280;68563;45.644;13.782;2023-08-06T06:56:09;99869.81;;;19.88;60.81
79150;BME280;68563;45.644;13.782;2023-08-06T06:58:34;99867.91;;;19.90;61.32
79150;BME280;68563;45.644;13.782;2023-08-06T07:01:00;99874.22;;;19.88;61.96
79150;BME280;68563;45.644;13.782;2023-08-06T07:03:25;99874.75;;;19.93;62.04
79150;BME280;68563;45.644;13.782;2023-08-06T07:05:51;99873.72;;;19.96;62.31
79150;BME280;68563;45.644;13.782;2023-08-06T07:08:16;99882.34;;;19.98;60.69
79150;BME280;68563;45.644;13.782;2023-08-06T07:10:42;99872.44;;;19.88;62.03
79150;BME280;68563;45.644;13.782;2023-08-06T07:13:08;99881.63;;;19.96;62.05
79150;BME280;68563;45.644;13.782;2023-08-06T07:15:33;99884.03;;;19.99;62.02
79150;BME280;68563;45.644;13.782;2023-08-06T07:17:59;99882.56;;;19.95;61.33
79150;BME280;68563;45.644;13.782;2023-08-06T07:20:24;99887.25;;;19.89;62.02
79150;BME280;68563;45.644;13.782;2023-08-06T07:22:49;99887.59;;;19.83;62.63
79150;BME280;68563;45.644;13.782;2023-08-06T07:25:16;99892.59;;;19.88;62.42
79150;BME280;68563;45.644;13.782;2023-08-06T07:27:41;99890.09;;;19.86;63.17
79150;BME280;68563;45.644;13.782;2023-08-06T07:30:07;99905.97;;;19.85;62.97
79150;BME280;68563;45.644;13.782;2023-08-06T07:32:33;99913.53;;;19.89;63.70
79150;BME280;68563;45.644;13.782;2023-08-06T07:34:58;99921.22;;;19.92;63.21
79150;BME280;68563;45.644;13.782;2023-08-06T07:37:28;99921.13;;;19.94;63.75
79150;BME280;68563;45.644;13.782;2023-08-06T07:39:56;99906.22;;;19.95;65.36
79150;BME280;68563;45.644;13.782;2023-08-06T07:42:22;99900.00;;;19.96;64.73
79150;BME280;68563;45.644;13.782;2023-08-06T07:44:54;99888.94;;;19.90;64.11
79150;BME280;68563;45.644;13.782;2023-08-06T07:47:20;99892.22;;;19.80;64.79
79150;BME280;68563;45.644;13.782;2023-08-06T07:49:46;99894.94;;;19.78;64.54
79150;BME280;68563;45.644;13.782;2023-08-06T07:52:11;99883.31;;;19.82;64.82
79150;BME280;68563;45.644;13.782;2023-08-06T07:54:37;99885.47;;;19.90;64.54
79150;BME280;68563;45.644;13.782;2023-08-06T07:57:02;99890.22;;;19.98;65.17
79150;BME280;68563;45.644;13.782;2023-08-06T07:59:28;99892.44;;;20.04;65.39
79150;BME280;68563;45.644;13.782;2023-08-06T08:01:53;99904.47;;;20.08;64.88
79150;BME280;68563;45.644;13.782;2023-08-06T08:04:19;99904.81;;;20.16;64.68
79150;BME280;68563;45.644;13.782;2023-08-06T08:06:44;99912.28;;;20.22;64.88
79150;BME280;68563;45.644;13.782;2023-08-06T08:09:09;99915.66;;;20.24;64.72
79150;BME280;68563;45.644;13.782;2023-08-06T08:11:35;99906.09;;;20.23;64.08
79150;BME280;68563;45.644;13.782;2023-08-06T08:14:00;99903.47;;;20.23;64.65
79150;BME280;68563;45.644;13.782;2023-08-06T08:16:26;99907.47;;;20.29;64.19
79150;BME280;68563;45.644;13.782;2023-08-06T08:18:51;99908.31;;;20.30;64.42
79150;BME280;68563;45.644;13.782;2023-08-06T08:21:16;99908.97;;;20.33;64.32
79150;BME280;68563;45.644;13.782;2023-08-06T08:23:42;99911.25;;;20.38;64.04
79150;BME280;68563;45.644;13.782;2023-08-06T08:26:09;99909.59;;;20.37;64.05
79150;BME280;68563;45.644;13.782;2023-08-06T08:28:34;99919.06;;;20.39;64.13
79150;BME280;68563;45.644;13.782;2023-08-06T08:30:59;99917.09;;;20.43;64.04
79150;BME280;68563;45.644;13.782;2023-08-06T08:33:25;99920.53;;;20.44;64.74
79150;BME280;68563;45.644;13.782;2023-08-06T08:35:50;99924.75;;;20.46;64.51
79150;BME280;68563;45.644;13.782;2023-08-06T08:38:16;99927.31;;;20.48;66.21
79150;BME280;68563;45.644;13.782;2023-08-06T08:40:45;99924.13;;;20.43;66.49
79150;BME280;68563;45.644;13.782;2023-08-06T08:43:14;99925.16;;;20.40;66.50
79150;BME280;68563;45.644;13.782;2023-08-06T08:45:42;99927.69;;;20.41;66.59
79150;BME280;68563;45.644;13.782;2023-08-06T08:48:10;99924.75;;;20.46;66.60
79150;BME280;68563;45.644;13.782;2023-08-06T08:50:37;99928.13;;;20.48;66.44
79150;BME280;68563;45.644;13.782;2023-08-06T08:53:02;99935.91;;;20.50;66.45
79150;BME280;68563;45.644;13.782;2023-08-06T08:55:28;99934.22;;;20.49;66.65
79150;BME280;68563;45.644;13.782;2023-08-06T08:57:54;99936.78;;;20.50;66.35
79150;BME280;68563;45.644;13.782;2023-08-06T09:00:19;99934.03;;;20.52;66.29
79150;BME280;68563;45.644;13.782;2023-08-06T09:02:45;99943.09;;;20.61;66.07
79150;BME280;68563;45.644;13.782;2023-08-06T09:05:12;99938.16;;;20.69;65.14
79150;BME280;68563;45.644;13.782;2023-08-06T09:07:42;99948.84;;;20.80;64.76
79150;BME280;68563;45.644;13.782;2023-08-06T09:10:11;99944.75;;;20.89;64.66
79150;BME280;68563;45.644;13.782;2023-08-06T09:12:39;99942.75;;;20.93;64.38
79150;BME280;68563;45.644;13.782;2023-08-06T09:15:04;99942.53;;;20.96;63.83
79150;BME280;68563;45.644;13.782;2023-08-06T09:17:30;99938.03;;;21.11;63.63
79150;BME280;68563;45.644;13.782;2023-08-06T09:19:56;99935.41;;;21.11;62.68
79150;BME280;68563;45.644;13.782;2023-08-06T09:22:22;99933.47;;;21.13;63.68
79150;BME280;68563;45.644;13.782;2023-08-06T09:24:48;99933.78;;;21.21;63.79
79150;BME280;68563;45.644;13.782;2023-08-06T09:27:14;99937.25;;;21.22;63.37
79150;BME280;68563;45.644;13.782;2023-08-06T09:29:43;99937.81;;;21.27;63.41
79150;BME280;68563;45.644;13.782;2023-08-06T09:32:13;99936.75;;;21.29;63.70
79150;BME280;68563;45.644;13.782;2023-08-06T09:34:42;99946.03;;;21.35;63.39
79150;BME280;68563;45.644;13.782;2023-08-06T09:37:11;99945.47;;;21.43;63.46
79150;BME280;68563;45.644;13.782;2023-08-06T09:39:38;99944.22;;;21.48;63.35
79150;BME280;68563;45.644;13.782;2023-08-06T09:42:04;99939.88;;;21.47;62.81
79150;BME280;68563;45.644;13.782;2023-08-06T09:44:31;99951.25;;;21.48;63.21
79150;BME280;68563;45.644;13.782;2023-08-06T09:46:59;99951.13;;;21.49;62.90
79150;BME280;68563;45.644;13.782;2023-08-06T09:51:58;99941.22;;;21.53;62.40
79150;BME280;68563;45.644;13.782;2023-08-06T09:54:27;99954.31;;;21.55;62.50
79150;BME280;68563;45.644;13.782;2023-08-06T09:56:56;99946.41;;;21.55;63.73
79150;BME280;68563;45.644;13.782;2023-08-06T09:59:25;99945.47;;;21.56;63.28
79150;BME280;68563;45.644;13.782;2023-08-06T10:01:51;99942.81;;;21.56;63.07
79150;BME280;68563;45.644;13.782;2023-08-06T10:04:19;99947.91;;;21.59;63.30
79150;BME280;68563;45.644;13.782;2023-08-06T10:06:48;99954.72;;;21.61;63.39
79150;BME280;68563;45.644;13.782;2023-08-06T10:09:14;99956.66;;;21.59;64.64
79150;BME280;68563;45.644;13.782;2023-08-06T10:11:39;99965.28;;;21.61;64.32
79150;BME280;68563;45.644;13.782;2023-08-06T10:14:12;99968.03;;;21.60;64.03
79150;BME280;68563;45.644;13.782;2023-08-06T10:16:41;99977.06;;;21.56;63.64
79150;BME280;68563;45.644;13.782;2023-08-06T10:19:09;99977.28;;;21.52;62.77
79150;BME280;68563;45.644;13.782;2023-08-06T10:21:38;99976.22;;;21.42;61.82
79150;BME280;68563;45.644;13.782;2023-08-06T10:24:07;99986.03;;;21.40;59.71
79150;BME280;68563;45.644;13.782;2023-08-06T10:26:34;99994.25;;;21.35;61.03
79150;BME280;68563;45.644;13.782;2023-08-06T10:29:00;99986.47;;;21.34;61.96
79150;BME280;68563;45.644;13.782;2023-08-06T10:31:54;99987.63;;;21.43;62.19
79150;BME280;68563;45.644;13.782;2023-08-06T10:34:22;99977.47;;;21.49;62.05
79150;BME280;68563;45.644;13.782;2023-08-06T10:36:47;99978.97;;;21.54;61.96
79150;BME280;68563;45.644;13.782;2023-08-06T10:39:14;99969.25;;;21.54;62.15
79150;BME280;68563;45.644;13.782;2023-08-06T10:41:42;99978.84;;;21.55;62.27
79150;BME280;68563;45.644;13.782;2023-08-06T10:44:11;99975.38;;;21.55;61.40
79150;BME280;68563;45.644;13.782;2023-08-06T10:46:37;99970.31;;;21.51;60.51
79150;BME280;68563;45.644;13.782;2023-08-06T10:49:03;99972.00;;;21.52;60.58
79150;BME280;68563;45.644;13.782;2023-08-06T10:51:29;99966.00;;;21.50;60.97
79150;BME280;68563;45.644;13.782;2023-08-06T10:53:55;99962.31;;;21.53;60.74
79150;BME280;68563;45.644;13.782;2023-08-06T10:56:23;99959.47;;;21.56;60.78
79150;BME280;68563;45.644;13.782;2023-08-06T10:58:50;99957.50;;;21.60;60.48
79150;BME280;68563;45.644;13.782;2023-08-06T11:01:16;99963.50;;;21.62;60.37
79150;BME280;68563;45.644;13.782;2023-08-06T11:03:42;99957.28;;;21.63;59.46
79150;BME280;68563;45.644;13.782;2023-08-06T11:06:09;99962.13;;;21.69;59.59
79150;BME280;68563;45.644;13.782;2023-08-06T11:08:36;99949.78;;;21.70;58.39
79150;BME280;68563;45.644;13.782;2023-08-06T11:11:16;99959.25;;;21.72;57.79
79150;BME280;68563;45.644;13.782;2023-08-06T11:13:49;99959.75;;;21.77;57.79
79150;BME280;68563;45.644;13.782;2023-08-06T11:16:19;99959.66;;;21.79;57.42
79150;BME280;68563;45.644;13.782;2023-08-06T11:18:45;99954.16;;;21.82;57.35
79150;BME280;68563;45.644;13.782;2023-08-06T11:21:12;99938.25;;;21.83;57.88
79150;BME280;68563;45.644;13.782;2023-08-06T11:23:38;99948.56;;;21.87;56.97
79150;BME280;68563;45.644;13.782;2023-08-06T11:26:04;99943.63;;;21.82;57.83
79150;BME280;68563;45.644;13.782;2023-08-06T11:28:30;99954.91;;;21.84;57.87
79150;BME280;68563;45.644;13.782;2023-08-06T11:30:55;99948.69;;;21.85;57.40
79150;BME280;68563;45.644;13.782;2023-08-06T11:33:25;99958.34;;;21.97;58.25
79150;BME280;68563;45.644;13.782;2023-08-06T11:35:52;99948.69;;;22.09;58.31
79150;BME280;68563;45.644;13.782;2023-08-06T11:38:17;99952.31;;;22.20;56.87
79150;BME280;68563;45.644;13.782;2023-08-06T11:40:47;99940.13;;;22.19;56.66
79150;BME280;68563;45.644;13.782;2023-08-06T11:43:13;99944.41;;;22.20;56.32
79150;BME280;68563;45.644;13.782;2023-08-06T11:45:39;99947.59;;;22.25;56.92
79150;BME280;68563;45.644;13.782;2023-08-06T11:48:05;99955.13;;;22.29;57.12
79150;BME280;68563;45.644;13.782;2023-08-06T11:50:31;99955.38;;;22.26;56.80
79150;BME280;68563;45.644;13.782;2023-08-06T11:53:00;99960.31;;;22.31;56.06
79150;BME280;68563;45.644;13.782;2023-08-06T11:55:26;99956.72;;;22.32;55.21
79150;BME280;68563;45.644;13.782;2023-08-06T11:57:53;99959.97;;;22.36;54.07
79150;BME280;68563;45.644;13.782;2023-08-06T12:00:19;99958.38;;;22.33;53.48
79150;BME280;68563;45.644;13.782;2023-08-06T12:02:48;99959.97;;;22.36;53.80
79150;BME280;68563;45.644;13.782;2023-08-06T12:05:18;99964.91;;;22.40;52.99
79150;BME280;68563;45.644;13.782;2023-08-06T12:07:50;99965.66;;;22.42;53.41
79150;BME280;68563;45.644;13.782;2023-08-06T12:10:17;99968.28;;;22.42;53.33
79150;BME280;68563;45.644;13.782;2023-08-06T12:12:42;99969.16;;;22.43;53.27
79150;BME280;68563;45.644;13.782;2023-08-06T12:15:09;99963.88;;;22.43;53.95
79150;BME280;68563;45.644;13.782;2023-08-06T12:17:35;99958.00;;;22.39;54.11
79150;BME280;68563;45.644;13.782;2023-08-06T12:20:03;99969.25;;;22.41;54.84
79150;BME280;68563;45.644;13.782;2023-08-06T12:22:29;99968.09;;;22.45;55.05
79150;BME280;68563;45.644;13.782;2023-08-06T12:25:00;99964.75;;;22.55;54.86
79150;BME280;68563;45.644;13.782;2023-08-06T12:27:25;99967.16;;;22.58;54.30
79150;BME280;68563;45.644;13.782;2023-08-06T12:29:51;99972.94;;;22.63;54.32
79150;BME280;68563;45.644;13.782;2023-08-06T12:32:17;99975.06;;;22.58;54.28
79150;BME280;68563;45.644;13.782;2023-08-06T12:34:42;99965.06;;;22.50;54.19
79150;BME280;68563;45.644;13.782;2023-08-06T12:37:08;99960.88;;;22.47;55.38
79150;BME280;68563;45.644;13.782;2023-08-06T12:39:37;99969.03;;;22.44;56.35
79150;BME280;68563;45.644;13.782;2023-08-06T12:42:04;99960.78;;;22.49;54.87
79150;BME280;68563;45.644;13.782;2023-08-06T12:44:30;99959.09;;;22.48;55.46
79150;BME280;68563;45.644;13.782;2023-08-06T12:46:56;99950.22;;;22.49;57.22
79150;BME280;68563;45.644;13.782;2023-08-06T12:49:22;99954.44;;;22.52;57.54
79150;BME280;68563;45.644;13.782;2023-08-06T12:51:49;99960.53;;;22.52;57.47